Lyndon, Pennsylvania
Current Conditions -  °F | °C
As of 11:30 PM on Sunday 25 Jan 2015 (Local Time) from KLNS Reporting Station
Light Snow Light Snow  
Wind Chill: 22°   Ceiling: 1300
Heat Index: 32°   Visibility: 2mi
Dew Point: 28°   Wind: 14mph
Humidity: 85%   Direction: 70°ENE
Pressure: 29.9"   Gusts: NA
Location:  40.0158°N, 76.2452°W
Report Text: KLNS 260430Z AUTO 07012KT 2SM -SN BR SCT009 BKN013 OVC018 00/M02 A2990 RMK AO2 P0000 T00001022
Loading
Personal Weather Stations






























Interactive Weather Map New forecast layout! Learn more

10-Day Weather Forecast

Advertisements
Track Severe Weather on mobile